createdAt,value
2019-02-09T00:01:08.326Z,99515.97
2019-02-09T00:03:36.411Z,99516.92
2019-02-09T00:06:05.291Z,99505.52
2019-02-09T00:08:33.472Z,99508.63
2019-02-09T00:11:01.566Z,99503.41
2019-02-09T00:13:30.069Z,99492.47
2019-02-09T00:15:58.340Z,99497.83
2019-02-09T00:18:26.510Z,99493.27
2019-02-09T00:20:54.574Z,99482.48
2019-02-09T00:23:22.635Z,99475.95
2019-02-09T00:25:51.524Z,99473.01
2019-02-09T00:28:19.899Z,99470.40
2019-02-09T00:30:47.975Z,99456.03
2019-02-09T00:33:16.098Z,99453.24
2019-02-09T00:35:44.186Z,99448.47
2019-02-09T00:38:13.888Z,99452.39
2019-02-09T00:40:41.976Z,99449.28
2019-02-09T00:43:10.057Z,99436.89
2019-02-09T00:45:38.318Z,99437.03
2019-02-09T00:48:06.383Z,99428.02
2019-02-09T00:50:37.141Z,99408.09
2019-02-09T00:53:06.830Z,99399.41
2019-02-09T00:55:34.932Z,99396.46
2019-02-09T00:58:03.465Z,99381.42
2019-02-09T01:00:31.893Z,99366.22
2019-02-09T01:03:00.036Z,99359.63
2019-02-09T01:05:32.294Z,99372.84
2019-02-09T01:08:00.356Z,99355.47
2019-02-09T01:10:30.255Z,99355.23
2019-02-09T01:12:59.111Z,99356.66
2019-02-09T01:15:27.548Z,99353.95
2019-02-09T01:17:55.657Z,99365.95
2019-02-09T01:20:24.343Z,99357.21
2019-02-09T01:22:53.451Z,99354.16
2019-02-09T01:25:21.566Z,99353.57
2019-02-09T01:27:51.482Z,99349.58
2019-02-09T01:30:32.423Z,99344.09
2019-02-09T01:33:00.471Z,99351.72
2019-02-09T01:35:28.541Z,99344.11
2019-02-09T01:37:56.697Z,99360.20
2019-02-09T01:40:25.903Z,99360.41
2019-02-09T01:42:54.377Z,99366.53
2019-02-09T01:45:25.622Z,99369.53
2019-02-09T01:47:53.836Z,99384.67
2019-02-09T01:50:22.344Z,99375.73
2019-02-09T01:52:50.509Z,99374.19
2019-02-09T01:55:18.667Z,99366.79
2019-02-09T01:57:47.096Z,99376.11
2019-02-09T02:00:18.717Z,99377.72
2019-02-09T02:02:47.394Z,99396.38
2019-02-09T02:05:16.599Z,99393.59
2019-02-09T02:07:44.748Z,99403.23
2019-02-09T02:10:23.699Z,99410.28
2019-02-09T02:12:51.832Z,99411.47
2019-02-09T02:15:20.487Z,99412.17
2019-02-09T02:17:49.131Z,99410.98
2019-02-09T02:20:19.431Z,99410.40
2019-02-09T02:22:47.475Z,99411.75
2019-02-09T02:25:16.556Z,99405.08
2019-02-09T02:27:44.626Z,99401.96
2019-02-09T02:30:27.673Z,99402.96
2019-02-09T02:32:55.724Z,99413.97
2019-02-09T02:35:23.794Z,99405.31
2019-02-09T02:37:52.016Z,99409.42
2019-02-09T02:40:20.718Z,99413.05
2019-02-09T02:42:49.545Z,99421.09
2019-02-09T02:45:18.106Z,99422.05
2019-02-09T02:47:47.259Z,99426.98
2019-02-09T02:50:17.522Z,99428.48
2019-02-09T02:52:45.583Z,99420.00
2019-02-09T02:55:19.310Z,99421.53
2019-02-09T02:57:50.553Z,99421.75
2019-02-09T03:00:30.996Z,99420.51
2019-02-09T03:02:52.733Z,99418.42
2019-02-09T03:05:22.202Z,99426.98
2019-02-09T03:07:50.477Z,99434.72
2019-02-09T03:10:18.740Z,99425.90
2019-02-09T03:12:46.791Z,99422.34
2019-02-09T03:15:18.510Z,99426.80
2019-02-09T03:17:46.658Z,99426.33
2019-02-09T03:20:16.623Z,99421.28
2019-02-09T03:22:44.659Z,99431.91
2019-02-09T03:25:19.101Z,99437.14
2019-02-09T03:27:47.534Z,99437.95
2019-02-09T03:30:18.029Z,99448.09
2019-02-09T03:32:46.075Z,99445.82
2019-02-09T03:35:14.819Z,99444.72
2019-02-09T03:37:43.338Z,99453.13
2019-02-09T03:40:14.613Z,99443.50
2019-02-09T03:42:42.752Z,99439.44
2019-02-09T03:45:21.806Z,99450.23
2019-02-09T03:47:50.106Z,99454.83
2019-02-09T03:50:18.887Z,99452.67
2019-02-09T03:52:47.042Z,99448.94
2019-02-09T03:55:15.789Z,99438.52
2019-02-09T03:57:43.871Z,99432.64
2019-02-09T04:00:18.543Z,99441.84
2019-02-09T04:02:46.866Z,99457.87
2019-02-09T04:05:14.924Z,99463.59
2019-02-09T04:07:43.270Z,99474.86
2019-02-09T04:10:14.122Z,99477.79
2019-02-09T04:12:43.320Z,99475.67
2019-02-09T04:15:13.326Z,99477.97
2019-02-09T04:17:41.413Z,99487.62
2019-02-09T04:20:13.514Z,99494.33
2019-02-09T04:22:42.012Z,99489.91
2019-02-09T04:25:11.630Z,99495.78
2019-02-09T04:27:39.682Z,99489.74
2019-02-09T04:30:14.933Z,99501.19
2019-02-09T04:32:42.870Z,99507.73
2019-02-09T04:35:10.967Z,99498.45
2019-02-09T04:37:39.011Z,99492.72
2019-02-09T04:40:10.608Z,99490.28
2019-02-09T04:42:38.666Z,99492.55
2019-02-09T04:45:08.550Z,99502.05
2019-02-09T04:47:36.609Z,99509.22
2019-02-09T04:50:08.007Z,99501.69
2019-02-09T04:52:37.477Z,99515.06
2019-02-09T04:55:08.334Z,99521.42
2019-02-09T04:57:36.342Z,99518.78
2019-02-09T05:00:07.576Z,99521.41
2019-02-09T05:02:35.619Z,99536.41
2019-02-09T05:05:04.455Z,99547.51
2019-02-09T05:07:32.894Z,99550.75
2019-02-09T05:10:00.986Z,99552.86
2019-02-09T05:12:29.024Z,99563.95
2019-02-09T05:14:57.044Z,99567.41
2019-02-09T05:17:25.072Z,99570.97
2019-02-09T05:19:53.155Z,99577.51
2019-02-09T05:22:21.155Z,99575.39
2019-02-09T05:24:49.205Z,99566.55
2019-02-09T05:27:17.243Z,99569.48
2019-02-09T05:29:45.287Z,99571.78
2019-02-09T05:32:13.681Z,99567.86
2019-02-09T05:34:41.759Z,99569.80
2019-02-09T05:37:09.838Z,99576.83
2019-02-09T05:39:38.251Z,99584.50
2019-02-09T05:42:06.329Z,99585.66
2019-02-09T05:44:34.379Z,99585.97
2019-02-09T05:47:02.626Z,99593.01
2019-02-09T05:49:30.666Z,99587.09
2019-02-09T05:51:58.702Z,99598.54
2019-02-09T05:54:26.780Z,99600.16
2019-02-09T05:56:54.849Z,99618.44
2019-02-09T05:59:22.927Z,99613.86
2019-02-09T06:01:51.038Z,99613.31
2019-02-09T06:04:19.054Z,99620.02
2019-02-09T06:06:47.112Z,99634.69
2019-02-09T06:09:15.144Z,99644.95
2019-02-09T06:11:43.179Z,99651.48
2019-02-09T06:14:12.747Z,99663.76
2019-02-09T06:16:40.746Z,99664.41
2019-02-09T06:19:08.811Z,99684.04
2019-02-09T06:21:36.939Z,99690.75
2019-02-09T06:24:04.991Z,99686.82
2019-02-09T06:26:33.042Z,99698.12
2019-02-09T06:29:01.119Z,99710.94
2019-02-09T06:31:29.191Z,99705.22
2019-02-09T06:33:57.238Z,99716.18
2019-02-09T06:36:25.289Z,99707.52
2019-02-09T06:38:53.337Z,99699.87
2019-02-09T06:41:21.607Z,99712.05
2019-02-09T06:43:49.643Z,99712.09
2019-02-09T06:46:17.747Z,99717.02
2019-02-09T06:48:45.805Z,99725.22
2019-02-09T06:51:13.872Z,99713.31
2019-02-09T06:53:41.987Z,99714.66
2019-02-09T06:56:11.493Z,99706.81
2019-02-09T06:58:40.025Z,99715.36
2019-02-09T07:01:08.120Z,99718.14
2019-02-09T07:03:36.525Z,99722.88
2019-02-09T07:06:04.885Z,99719.63
2019-02-09T07:08:33.143Z,99721.11
2019-02-09T07:11:01.172Z,99720.47
2019-02-09T07:13:29.698Z,99724.17
2019-02-09T07:15:57.762Z,99734.83
2019-02-09T07:18:25.818Z,99735.81
2019-02-09T07:20:53.939Z,99741.52
2019-02-09T07:23:22.137Z,99751.01
2019-02-09T07:25:50.179Z,99760.14
2019-02-09T07:28:18.617Z,99762.43
2019-02-09T07:30:46.811Z,99760.14
2019-02-09T07:33:14.845Z,99765.02
2019-02-09T07:35:43.874Z,99769.44
2019-02-09T07:38:13.452Z,99773.21
2019-02-09T07:40:41.505Z,99774.34
2019-02-09T07:43:09.613Z,99774.34
2019-02-09T07:45:37.835Z,99777.92
2019-02-09T07:48:05.899Z,99778.11
2019-02-09T07:50:33.950Z,99777.12
2019-02-09T07:53:01.928Z,99782.66
2019-02-09T07:55:31.068Z,99787.08
2019-02-09T07:57:59.133Z,99784.62
2019-02-09T08:00:28.457Z,99797.69
2019-02-09T08:02:56.993Z,99807.80
2019-02-09T08:05:27.240Z,99796.75
2019-02-09T08:07:55.289Z,99805.23
2019-02-09T08:10:26.419Z,99812.56
2019-02-09T08:12:55.123Z,99814.38
2019-02-09T08:15:25.792Z,99812.72
2019-02-09T08:17:53.857Z,99804.56
2019-02-09T08:20:24.128Z,99806.02
2019-02-09T08:22:52.877Z,99799.80
2019-02-09T08:25:23.333Z,99797.02
2019-02-09T08:27:51.886Z,99794.41
2019-02-09T08:30:26.360Z,99795.22
2019-02-09T08:32:54.878Z,99799.14
2019-02-09T08:35:23.133Z,99802.89
2019-02-09T08:37:52.491Z,99806.47
2019-02-09T08:40:20.849Z,99812.02
2019-02-09T08:42:49.161Z,99822.98
2019-02-09T08:45:18.141Z,99807.11
2019-02-09T08:47:46.529Z,99811.18
2019-02-09T08:50:24.188Z,99820.02
2019-02-09T08:52:52.260Z,99821.97
2019-02-09T08:55:20.431Z,99825.54
2019-02-09T08:57:48.534Z,99819.98
2019-02-09T09:00:20.499Z,99817.52
2019-02-09T09:02:48.799Z,99812.78
2019-02-09T09:05:17.015Z,99805.56
2019-02-09T09:07:45.326Z,99806.88
2019-02-09T09:10:16.594Z,99806.84
2019-02-09T09:12:45.961Z,99811.08
2019-02-09T09:15:18.645Z,99799.61
2019-02-09T09:17:46.957Z,99802.05
2019-02-09T09:20:22.759Z,99792.35
2019-02-09T09:22:50.784Z,99798.53
2019-02-09T09:25:19.373Z,99799.16
2019-02-09T09:27:47.418Z,99796.84
2019-02-09T09:30:19.192Z,99796.16
2019-02-09T09:32:47.272Z,99792.17
2019-02-09T09:35:15.374Z,99789.67
2019-02-09T09:37:43.371Z,99787.50
2019-02-09T09:40:19.917Z,99804.95
2019-02-09T09:42:48.148Z,99813.47
2019-02-09T09:45:24.028Z,99817.83
2019-02-09T09:47:52.050Z,99818.29
2019-02-09T09:50:21.000Z,99818.73
2019-02-09T09:52:49.568Z,99807.37
2019-02-09T09:55:18.002Z,99813.34
2019-02-09T09:57:46.207Z,99815.77
2019-02-09T10:00:16.809Z,99808.31
2019-02-09T10:02:44.831Z,99807.92
2019-02-09T10:05:13.159Z,99816.23
2019-02-09T10:07:41.336Z,99817.30
2019-02-09T10:10:14.629Z,99829.18
2019-02-09T10:12:42.635Z,99825.31
2019-02-09T10:15:13.364Z,99832.87
2019-02-09T10:17:41.686Z,99834.36
2019-02-09T10:20:14.539Z,99838.64
2019-02-09T10:22:42.558Z,99838.91
2019-02-09T10:25:11.161Z,99852.74
2019-02-09T10:27:39.293Z,99856.58
2019-02-09T10:30:13.675Z,99851.44
2019-02-09T10:32:44.437Z,99866.84
2019-02-09T10:35:12.941Z,99871.91
2019-02-09T10:37:41.252Z,99893.63
2019-02-09T10:40:14.827Z,99895.44
2019-02-09T10:42:42.881Z,99895.25
2019-02-09T10:45:15.169Z,99905.38
2019-02-09T10:47:43.187Z,99905.06
2019-02-09T10:50:17.301Z,99898.41
2019-02-09T10:52:46.489Z,99896.35
2019-02-09T10:55:14.659Z,99895.55
2019-02-09T10:57:43.984Z,99895.97
2019-02-09T11:00:20.045Z,99895.13
2019-02-09T11:02:52.220Z,99893.74
2019-02-09T11:05:18.458Z,99891.08
2019-02-09T11:07:46.680Z,99893.47
2019-02-09T11:10:17.225Z,99891.47
2019-02-09T11:12:45.295Z,99885.52
2019-02-09T11:15:17.190Z,99888.95
2019-02-09T11:17:45.344Z,99878.41
2019-02-09T11:20:17.023Z,99892.73
2019-02-09T11:22:45.226Z,99887.30
2019-02-09T11:25:13.860Z,99889.11
2019-02-09T11:27:41.933Z,99875.81
2019-02-09T11:30:17.177Z,99873.48
2019-02-09T11:32:45.313Z,99869.42
2019-02-09T11:35:14.448Z,99862.38
2019-02-09T11:37:42.599Z,99856.92
2019-02-09T11:40:11.251Z,99866.19
2019-02-09T11:42:39.458Z,99872.83
2019-02-09T11:45:12.250Z,99883.16
2019-02-09T11:47:40.331Z,99870.50
2019-02-09T11:50:10.157Z,99869.39
2019-02-09T11:52:38.333Z,99875.57
2019-02-09T11:55:08.051Z,99876.89
2019-02-09T11:57:36.219Z,99872.63
2019-02-09T12:00:18.487Z,99879.83
2019-02-09T12:02:46.551Z,99872.13
2019-02-09T12:05:14.731Z,99880.77
2019-02-09T12:07:43.103Z,99873.27
2019-02-09T12:10:11.851Z,99879.08
2019-02-09T12:12:40.015Z,99868.67
2019-02-09T12:15:12.799Z,99864.29
2019-02-09T12:17:41.165Z,99871.27
2019-02-09T12:20:12.138Z,99871.63
2019-02-09T12:22:40.215Z,99870.55
2019-02-09T12:25:12.856Z,99870.88
2019-02-09T12:27:41.312Z,99865.23
2019-02-09T12:30:15.022Z,99858.26
2019-02-09T12:32:43.072Z,99859.16
2019-02-09T12:35:12.142Z,99857.28
2019-02-09T12:37:40.226Z,99857.42
2019-02-09T12:40:15.732Z,99847.92
2019-02-09T12:42:43.883Z,99858.95
2019-02-09T12:45:14.053Z,99858.64
2019-02-09T12:47:42.347Z,99855.51
2019-02-09T12:50:12.431Z,99863.45
2019-02-09T12:52:40.794Z,99863.39
2019-02-09T12:55:08.981Z,99856.36
2019-02-09T12:57:38.251Z,99858.89
2019-02-09T13:00:12.641Z,99853.72
2019-02-09T13:02:40.878Z,99850.84
2019-02-09T13:05:10.468Z,99848.92
2019-02-09T13:07:38.793Z,99846.15
2019-02-09T13:10:07.549Z,99852.82
2019-02-09T13:12:35.650Z,99858.91
2019-02-09T13:15:05.151Z,99854.14
2019-02-09T13:17:33.449Z,99853.28
2019-02-09T13:20:01.486Z,99854.09
2019-02-09T13:22:29.556Z,99857.23
2019-02-09T13:24:57.569Z,99860.02
2019-02-09T13:27:25.713Z,99861.42
2019-02-09T13:29:53.830Z,99861.48
2019-02-09T13:32:21.879Z,99855.48
2019-02-09T13:34:49.957Z,99856.80
2019-02-09T13:37:17.944Z,99856.16
2019-02-09T13:39:46.002Z,99851.70
2019-02-09T13:42:15.324Z,99854.53
2019-02-09T13:44:43.482Z,99851.40
2019-02-09T13:47:11.525Z,99858.78
2019-02-09T13:49:41.034Z,99855.54
2019-02-09T13:52:09.267Z,99852.41
2019-02-09T13:54:37.332Z,99851.79
2019-02-09T13:57:05.373Z,99858.98
2019-02-09T13:59:33.445Z,99863.04
2019-02-09T14:02:01.458Z,99864.44
2019-02-09T14:04:29.418Z,99863.63
2019-02-09T14:06:57.437Z,99866.25
2019-02-09T14:09:25.499Z,99864.74
2019-02-09T14:11:53.856Z,99862.42
2019-02-09T14:14:21.952Z,99862.62
2019-02-09T14:16:50.250Z,99854.11
2019-02-09T14:19:18.432Z,99854.73
2019-02-09T14:21:46.440Z,99841.89
2019-02-09T14:24:16.046Z,99842.50
2019-02-09T14:26:44.068Z,99844.52
2019-02-09T14:29:12.467Z,99842.19
2019-02-09T14:31:40.501Z,99842.89
2019-02-09T14:34:08.522Z,99842.58
2019-02-09T14:36:36.595Z,99845.22
2019-02-09T14:39:10.436Z,99856.35
2019-02-09T14:41:38.506Z,99850.47
2019-02-09T14:44:06.654Z,99855.73
2019-02-09T14:46:34.739Z,99855.42
2019-02-09T14:49:03.113Z,99860.18
2019-02-09T14:51:31.537Z,99857.05
2019-02-09T14:53:59.561Z,99851.28
2019-02-09T14:56:27.639Z,99843.20
2019-02-09T14:58:55.681Z,99850.89
2019-02-09T15:01:23.778Z,99859.48
2019-02-09T15:03:51.795Z,99861.92
2019-02-09T15:06:19.894Z,99868.38
2019-02-09T15:08:48.038Z,99860.80
2019-02-09T15:11:16.110Z,99863.78
2019-02-09T15:13:44.261Z,99866.92
2019-02-09T15:16:26.881Z,99860.69
2019-02-09T15:18:54.923Z,99870.50
2019-02-09T15:21:25.716Z,99866.42
2019-02-09T15:23:53.877Z,99867.27
2019-02-09T15:26:21.997Z,99866.76
2019-02-09T15:28:51.055Z,99868.58
2019-02-09T15:31:19.112Z,99862.47
2019-02-09T15:33:48.292Z,99869.23
2019-02-09T15:36:17.646Z,99869.23
2019-02-09T15:38:45.655Z,99866.30
2019-02-09T15:41:13.854Z,99887.73
2019-02-09T15:43:41.930Z,99884.84
2019-02-09T15:46:10.031Z,99883.57
2019-02-09T15:48:38.452Z,99889.02
2019-02-09T15:51:06.536Z,99872.98
2019-02-09T15:53:34.735Z,99870.98
2019-02-09T15:56:03.708Z,99869.59
2019-02-09T15:58:31.725Z,99859.82
2019-02-09T16:00:59.834Z,99862.76
2019-02-09T16:03:27.872Z,99858.92
2019-02-09T16:05:56.084Z,99860.28
2019-02-09T16:08:24.176Z,99861.02
2019-02-09T16:10:52.239Z,99856.68
2019-02-09T16:13:20.319Z,99858.91
2019-02-09T16:15:48.430Z,99860.07
2019-02-09T16:18:19.178Z,99854.36
2019-02-09T16:20:47.654Z,99864.08
2019-02-09T16:23:15.668Z,99851.98
2019-02-09T16:25:43.806Z,99856.11
2019-02-09T16:28:11.854Z,99858.12
2019-02-09T16:30:40.057Z,99855.52
2019-02-09T16:33:08.255Z,99870.46
2019-02-09T16:35:36.446Z,99858.84
2019-02-09T16:38:04.732Z,99872.65
2019-02-09T16:40:32.914Z,99869.05
2019-02-09T16:43:01.325Z,99874.30
2019-02-09T16:45:31.762Z,99870.05
2019-02-09T16:48:00.240Z,99877.30
2019-02-09T16:50:28.445Z,99876.98
2019-02-09T16:52:57.091Z,99874.05
2019-02-09T16:55:25.185Z,99880.61
2019-02-09T16:57:53.512Z,99887.64
2019-02-09T17:00:31.544Z,99888.95
2019-02-09T17:02:59.681Z,99887.02
2019-02-09T17:05:27.863Z,99898.83
2019-02-09T17:08:04.913Z,99908.02
2019-02-09T17:10:34.153Z,99913.77
2019-02-09T17:13:02.280Z,99911.45
2019-02-09T17:15:30.372Z,99919.88
2019-02-09T17:17:58.460Z,99928.56
2019-02-09T17:20:26.611Z,99932.84
2019-02-09T17:22:54.714Z,99926.78
2019-02-09T17:25:22.865Z,99932.21
2019-02-09T17:27:51.035Z,99934.84
2019-02-09T17:30:26.213Z,99930.59
2019-02-09T17:32:54.532Z,99919.93
2019-02-09T17:35:22.578Z,99925.99
2019-02-09T17:37:50.818Z,99922.06
2019-02-09T17:40:33.087Z,99914.55
2019-02-09T17:43:01.178Z,99920.17
2019-02-09T17:45:37.116Z,99920.19
2019-02-09T17:48:05.349Z,99916.28
2019-02-09T17:50:35.316Z,99919.77
2019-02-09T17:53:04.027Z,99920.42
2019-02-09T17:55:32.149Z,99917.66
2019-02-09T17:58:00.798Z,99910.80
2019-02-09T18:00:36.102Z,99910.16
2019-02-09T18:03:04.492Z,99913.12
2019-02-09T18:05:32.626Z,99913.67
2019-02-09T18:08:00.877Z,99906.16
2019-02-09T18:10:29.108Z,99902.61
2019-02-09T18:12:57.549Z,99897.59
2019-02-09T18:15:25.803Z,99908.27
2019-02-09T18:17:53.896Z,99898.94
2019-02-09T18:20:22.070Z,99898.80
2019-02-09T18:22:50.186Z,99897.35
2019-02-09T18:25:18.363Z,99903.24
2019-02-09T18:27:46.579Z,99914.72
2019-02-09T18:30:20.157Z,99912.41
2019-02-09T18:32:48.362Z,99909.48
2019-02-09T18:35:17.583Z,99919.64
2019-02-09T18:37:45.790Z,99914.41
2019-02-09T18:40:18.822Z,99918.34
2019-02-09T18:42:48.467Z,99908.34
2019-02-09T18:45:24.895Z,99901.66
2019-02-09T18:47:53.129Z,99900.84
2019-02-09T18:50:23.999Z,99905.11
2019-02-09T18:52:54.127Z,99902.30
2019-02-09T18:55:23.718Z,99900.00
2019-02-09T18:57:52.093Z,99894.80
2019-02-09T19:00:27.593Z,99878.77
2019-02-09T19:02:55.828Z,99888.08
2019-02-09T19:05:23.941Z,99876.52
2019-02-09T19:07:52.506Z,99882.09
2019-02-09T19:10:24.795Z,99874.41
2019-02-09T19:12:53.164Z,99867.69
2019-02-09T19:15:22.871Z,99869.15
2019-02-09T19:17:51.183Z,99859.84
2019-02-09T19:20:28.987Z,99858.22
2019-02-09T19:22:59.206Z,99857.58
2019-02-09T19:25:28.087Z,99857.73
2019-02-09T19:27:56.131Z,99854.11
2019-02-09T19:30:24.691Z,99852.97
2019-02-09T19:32:53.042Z,99861.78
2019-02-09T19:35:21.801Z,99860.16
2019-02-09T19:37:49.973Z,99854.42
2019-02-09T19:40:19.452Z,99862.45
2019-02-09T19:42:48.270Z,99866.07
2019-02-09T19:45:22.539Z,99861.51
2019-02-09T19:47:51.162Z,99865.09
2019-02-09T19:50:21.020Z,99864.31
2019-02-09T19:52:49.115Z,99862.20
2019-02-09T19:55:19.804Z,99857.28
2019-02-09T19:57:49.133Z,99865.14
2019-02-09T20:00:21.892Z,99867.27
2019-02-09T20:02:50.126Z,99871.23
2019-02-09T20:05:19.824Z,99867.14
2019-02-09T20:07:48.148Z,99854.22
2019-02-09T20:10:21.608Z,99856.84
2019-02-09T20:12:49.780Z,99858.47
2019-02-09T20:15:17.913Z,99850.30
2019-02-09T20:17:46.163Z,99843.74
2019-02-09T20:20:14.485Z,99835.70
2019-02-09T20:22:42.658Z,99837.52
2019-02-09T20:25:14.799Z,99827.53
2019-02-09T20:27:43.312Z,99822.79
2019-02-09T20:30:21.417Z,99830.33
2019-02-09T20:32:49.829Z,99828.70
2019-02-09T20:35:18.323Z,99822.66
2019-02-09T20:37:46.412Z,99829.57
2019-02-09T20:40:28.512Z,99829.08
2019-02-09T20:43:02.270Z,99828.77
2019-02-09T20:45:27.346Z,99819.11
2019-02-09T20:47:55.456Z,99814.87
2019-02-09T20:50:23.501Z,99809.31
2019-02-09T20:52:51.894Z,99807.02
2019-02-09T20:55:21.433Z,99814.87
2019-02-09T20:57:49.477Z,99816.49
2019-02-09T21:00:19.230Z,99810.45
2019-02-09T21:02:48.672Z,99814.05
2019-02-09T21:05:17.245Z,99810.94
2019-02-09T21:07:45.679Z,99816.49
2019-02-09T21:10:21.115Z,99812.25
2019-02-09T21:12:49.283Z,99812.25
2019-02-09T21:15:19.317Z,99791.62
2019-02-09T21:17:47.478Z,99790.31
2019-02-09T21:20:15.694Z,99802.59
2019-02-09T21:22:43.747Z,99809.45
2019-02-09T21:25:16.503Z,99798.66
2019-02-09T21:27:44.598Z,99799.83
2019-02-09T21:30:15.723Z,99798.84
2019-02-09T21:32:43.905Z,99805.56
2019-02-09T21:35:12.279Z,99808.36
2019-02-09T21:37:41.417Z,99795.09
2019-02-09T21:40:15.607Z,99790.67
2019-02-09T21:42:43.810Z,99791.98
2019-02-09T21:45:14.328Z,99789.05
2019-02-09T21:47:42.955Z,99795.09
2019-02-09T21:50:15.500Z,99788.06
2019-02-09T21:52:43.914Z,99790.18
2019-02-09T21:55:12.311Z,99778.58
2019-02-09T21:57:40.384Z,99778.41
2019-02-09T22:00:27.049Z,99777.44
2019-02-09T22:02:55.177Z,99765.16
2019-02-09T22:09:12.607Z,99773.33
2019-02-09T22:11:48.953Z,99761.73
2019-02-09T22:14:17.043Z,99755.52
2019-02-09T22:16:46.834Z,99758.64
2019-02-09T22:19:24.227Z,99752.45
2019-02-09T22:21:52.550Z,99750.84
2019-02-09T22:24:21.786Z,99740.23
2019-02-09T22:26:50.083Z,99741.91
2019-02-09T22:29:18.513Z,99729.01
2019-02-09T22:31:46.623Z,99724.77
2019-02-09T22:34:14.784Z,99726.13
2019-02-09T22:36:43.258Z,99731.05
2019-02-09T22:39:11.436Z,99724.37
2019-02-09T22:41:40.495Z,99715.71
2019-02-09T22:44:08.609Z,99709.84
2019-02-09T22:46:37.541Z,99716.06
2019-02-09T22:49:16.789Z,99698.26
2019-02-09T22:51:45.011Z,99697.27
2019-02-09T22:54:13.415Z,99700.73
2019-02-09T22:56:41.609Z,99689.78
2019-02-09T22:59:09.689Z,99683.91
2019-02-09T23:01:48.015Z,99674.63
2019-02-09T23:04:37.028Z,99677.56
2019-02-09T23:07:25.335Z,99679.71
2019-02-09T23:09:53.379Z,99685.44
2019-02-09T23:12:22.020Z,99686.61
2019-02-09T23:14:50.245Z,99685.80
2019-02-09T23:17:18.721Z,99679.29
2019-02-09T23:19:46.777Z,99675.52
2019-02-09T23:22:14.821Z,99665.41
2019-02-09T23:24:42.882Z,99661.98
2019-02-09T23:27:10.963Z,99655.12
2019-02-09T23:29:39.097Z,99655.45
2019-02-09T23:32:07.158Z,99646.48
2019-02-09T23:34:35.221Z,99646.48
2019-02-09T23:37:03.289Z,99645.17
2019-02-09T23:39:31.355Z,99648.28
2019-02-09T23:42:02.464Z,99644.36
2019-02-09T23:44:30.536Z,99639.24
2019-02-09T23:46:58.601Z,99633.70
2019-02-09T23:49:26.721Z,99631.75
2019-02-09T23:51:55.067Z,99625.54
2019-02-09T23:54:25.633Z,99618.69
2019-02-09T23:56:53.754Z,99613.15
2019-02-09T23:59:21.822Z,99612.83
